Time;durP1;ratioP1;P1;durP2;ratioP2;P2;SDS_P1;SDS_P2;PMS_P1;PMS_P2;Temp;Humidity;BMP_temperature;BMP_pressure;BME280_temperature;BME280_humidity;BME280_pressure;Samples;Min_cycle;Max_cycle;Signal;HPM_P1;HPM_P2
2022/01/03 00:00:09;;;;;;;;;;;;;;;21.58;43.13;100909.50;7282628;19;152038;-50
2022/01/03 00:02:36;;;;;;;;;;;;;;;21.52;42.73;100912.78;7280546;19;152351;-50
2022/01/03 00:05:03;;;;;;;;;;;;;;;21.50;42.88;100910.28;7281565;19;153565;-50
2022/01/03 00:07:32;;;;;;;;;;;;;;;21.51;43.12;100911.09;7278388;19;152129;-51
2022/01/03 00:09:59;;;;;;;;;;;;;;;21.48;43.05;100906.13;7282339;19;152659;-50
2022/01/03 00:12:26;;;;;;;;;;;;;;;21.44;43.20;100914.34;7285272;19;153565;-50
2022/01/03 00:14:53;;;;;;;;;;;;;;;21.38;43.20;100900.72;7274863;19;151940;-50
2022/01/03 00:17:20;;;;;;;;;;;;;;;21.39;43.29;100906.03;7282390;19;155268;-50
2022/01/03 00:19:46;;;;;;;;;;;;;;;21.35;43.33;100896.56;7282088;19;152183;-50
2022/01/03 00:22:14;;;;;;;;;;;;;;;21.33;43.17;100901.66;7283589;19;152345;-50
2022/01/03 00:24:45;;;;;;;;;;;;;;;21.32;43.50;100901.97;7280722;19;153543;-50
2022/01/03 00:27:13;;;;;;;;;;;;;;;21.27;43.67;100897.31;7282566;19;152271;-50
2022/01/03 00:29:42;;;;;;;;;;;;;;;21.27;43.30;100900.09;7280801;19;152873;-50
2022/01/03 00:32:09;;;;;;;;;;;;;;;21.26;43.39;100895.63;7277770;19;154665;-50
2022/01/03 00:34:37;;;;;;;;;;;;;;;21.25;43.24;100896.81;7286457;19;152672;-50
2022/01/03 00:37:05;;;;;;;;;;;;;;;21.20;43.63;100900.56;7281204;19;153903;-50
2022/01/03 00:39:32;;;;;;;;;;;;;;;21.19;43.53;100904.50;7281588;19;151885;-50
2022/01/03 00:41:59;;;;;;;;;;;;;;;21.13;43.65;100905.75;7275955;19;152332;-50
2022/01/03 00:44:26;;;;;;;;;;;;;;;21.11;43.52;100901.56;7273885;19;154145;-50
2022/01/03 00:46:54;;;;;;;;;;;;;;;21.11;43.55;100924.03;7273264;19;152219;-51
2022/01/03 00:49:21;;;;;;;;;;;;;;;21.12;43.98;100908.84;7276406;19;153278;-50
2022/01/03 00:51:48;;;;;;;;;;;;;;;21.05;43.71;100916.84;7275692;19;154026;-50
2022/01/03 00:54:14;;;;;;;;;;;;;;;21.05;43.47;100900.00;7279548;19;151896;-50
2022/01/03 00:56:47;;;;;;;;;;;;;;;21.03;43.67;100910.72;7289561;19;153214;-50
2022/01/03 00:59:15;;;;;;;;;;;;;;;21.03;43.53;100907.94;7281445;19;151905;-49
2022/01/03 01:01:45;;;;;;;;;;;;;;;20.99;43.34;100910.50;7280542;19;152688;-50
2022/01/03 01:04:13;;;;;;;;;;;;;;;20.99;43.18;100909.66;7279525;19;153234;-50
2022/01/03 01:06:40;;;;;;;;;;;;;;;20.96;43.49;100915.91;7280057;19;152321;-50
2022/01/03 01:09:08;;;;;;;;;;;;;;;20.91;43.74;100924.44;7275349;19;153934;-51
2022/01/03 01:11:35;;;;;;;;;;;;;;;20.90;43.91;100911.53;7276435;19;153012;-51
2022/01/03 01:14:03;;;;;;;;;;;;;;;20.86;43.88;100917.78;7282136;19;152097;-50
2022/01/03 01:16:29;;;;;;;;;;;;;;;20.82;43.67;100910.31;7279629;19;151749;-49
2022/01/03 01:18:56;;;;;;;;;;;;;;;20.84;43.81;100919.25;7286558;19;153498;-50
2022/01/03 01:21:25;;;;;;;;;;;;;;;20.81;44.07;100915.09;7277655;19;153110;-50
2022/01/03 01:23:52;;;;;;;;;;;;;;;20.78;44.29;100921.34;7274996;19;154018;-50
2022/01/03 01:28:57;;;;;;;;;;;;;;;20.75;44.09;100912.69;7284422;19;152178;-50
2022/01/03 01:31:24;;;;;;;;;;;;;;;20.71;44.43;100920.91;7282400;19;153507;-51
2022/01/03 01:33:52;;;;;;;;;;;;;;;20.73;44.02;100926.22;7283706;19;152305;-51
2022/01/03 01:36:22;;;;;;;;;;;;;;;20.71;44.61;100923.72;7285062;19;153623;-51
2022/01/03 01:38:50;;;;;;;;;;;;;;;20.70;44.80;100924.03;7282755;19;153810;-51
2022/01/03 01:41:18;;;;;;;;;;;;;;;20.69;44.71;100911.13;7290774;19;151906;-50
2022/01/03 01:43:46;;;;;;;;;;;;;;;20.69;44.75;100922.34;7282606;19;154262;-50
2022/01/03 01:46:14;;;;;;;;;;;;;;;20.67;44.38;100919.03;7284958;19;152482;-51
2022/01/03 01:48:43;;;;;;;;;;;;;;;20.68;44.62;100915.91;7285820;19;152610;-50
2022/01/03 01:51:11;;;;;;;;;;;;;;;20.65;45.18;100913.72;7282647;19;154256;-51
2022/01/03 01:53:40;;;;;;;;;;;;;;;20.68;45.09;100917.88;7283752;19;151938;-50
2022/01/03 01:56:13;;;;;;;;;;;;;;;20.68;44.70;100912.25;7285422;19;152804;-50
2022/01/03 01:58:49;;;;;;;;;;;;;;;20.66;44.90;100908.94;7282732;19;152632;-51
2022/01/03 02:01:20;;;;;;;;;;;;;;;20.67;45.18;100911.44;7285401;19;151631;-51
2022/01/03 02:03:47;;;;;;;;;;;;;;;20.64;45.39;100897.19;7291634;19;153293;-50
2022/01/03 02:06:24;;;;;;;;;;;;;;;20.67;45.17;100899.41;7281957;19;153213;-51
2022/01/03 02:08:52;;;;;;;;;;;;;;;20.70;45.73;100902.41;7285095;19;153651;-51
2022/01/03 02:11:24;;;;;;;;;;;;;;;20.40;42.65;100903.81;7282052;19;153667;-53
2022/01/03 02:13:51;;;;;;;;;;;;;;;19.98;43.32;100912.38;7284308;19;151957;-50
2022/01/03 02:16:18;;;;;;;;;;;;;;;19.72;43.26;100900.72;7283244;19;153060;-51
2022/01/03 02:18:45;;;;;;;;;;;;;;;19.76;43.75;100901.78;7282207;19;153348;-50
2022/01/03 02:21:12;;;;;;;;;;;;;;;19.22;43.58;100907.03;7282847;19;151972;-51
2022/01/03 02:23:39;;;;;;;;;;;;;;;19.06;43.87;100912.00;7288685;19;153449;-49
2022/01/03 02:26:05;;;;;;;;;;;;;;;18.95;44.22;100904.88;7284248;19;152362;-51
2022/01/03 02:28:32;;;;;;;;;;;;;;;19.33;45.56;100895.41;7284746;19;153757;-52
2022/01/03 02:30:59;;;;;;;;;;;;;;;19.49;44.96;100896.88;7282837;19;154312;-51
2022/01/03 02:33:25;;;;;;;;;;;;;;;19.57;46.08;100889.78;7281779;19;152206;-50
2022/01/03 02:35:52;;;;;;;;;;;;;;;19.63;46.08;100885.72;7284748;19;153129;-50
2022/01/03 02:38:20;;;;;;;;;;;;;;;19.66;46.45;100898.31;7281308;19;152218;-49
2022/01/03 02:40:52;;;;;;;;;;;;;;;19.65;46.56;100899.44;7286635;19;152111;-50
2022/01/03 02:43:20;;;;;;;;;;;;;;;19.66;46.25;100884.31;7287450;19;153263;-50
2022/01/03 02:45:48;;;;;;;;;;;;;;;19.70;46.55;100890.97;7293064;19;153330;-49
2022/01/03 02:48:15;;;;;;;;;;;;;;;19.70;46.37;100883.41;7285098;19;153997;-50
2022/01/03 02:50:49;;;;;;;;;;;;;;;19.72;46.48;100875.50;7282699;19;155132;-50
2022/01/03 02:53:17;;;;;;;;;;;;;;;19.70;46.29;100877.78;7284279;19;152014;-51
2022/01/03 02:55:45;;;;;;;;;;;;;;;19.73;46.42;100868.75;7286673;19;152878;-51
2022/01/03 02:58:12;;;;;;;;;;;;;;;19.75;46.50;100857.25;7285392;19;153854;-50
2022/01/03 03:03:13;;;;;;;;;;;;;;;19.71;46.63;100859.84;7287103;19;153606;-50
2022/01/03 03:05:41;;;;;;;;;;;;;;;19.72;46.71;100863.44;7285923;19;153417;-50
2022/01/03 03:08:08;;;;;;;;;;;;;;;19.73;46.74;100853.91;7291442;19;151412;-50
2022/01/03 03:10:36;;;;;;;;;;;;;;;19.74;46.66;100858.38;7279013;19;152928;-50
2022/01/03 03:13:04;;;;;;;;;;;;;;;19.76;47.14;100859.72;7285947;19;151873;-50
2022/01/03 03:15:33;;;;;;;;;;;;;;;19.74;47.07;100853.63;7285523;19;151600;-50
2022/01/03 03:18:01;;;;;;;;;;;;;;;19.73;47.01;100848.31;7284696;19;154626;-50
2022/01/03 03:20:30;;;;;;;;;;;;;;;19.72;46.96;100850.25;7286490;19;152037;-50
2022/01/03 03:22:58;;;;;;;;;;;;;;;19.74;47.10;100853.63;7285119;19;152870;-50
2022/01/03 03:25:28;;;;;;;;;;;;;;;19.75;47.28;100860.06;7282289;19;153654;-50
2022/01/03 03:27:57;;;;;;;;;;;;;;;19.75;47.15;100858.09;7284871;19;152976;-50
2022/01/03 03:30:27;;;;;;;;;;;;;;;19.74;47.31;100848.00;7292295;19;153355;-50
2022/01/03 03:32:55;;;;;;;;;;;;;;;19.73;47.25;100848.31;7283588;19;151950;-50
2022/01/03 03:35:22;;;;;;;;;;;;;;;19.69;47.40;100848.09;7282666;19;153148;-50
2022/01/03 03:37:49;;;;;;;;;;;;;;;19.68;47.77;100843.59;7281075;19;153859;-50
2022/01/03 03:40:16;;;;;;;;;;;;;;;19.69;47.73;100845.28;7282421;19;151616;-51
2022/01/03 03:42:43;;;;;;;;;;;;;;;19.70;47.91;100843.31;7282123;19;152309;-51
2022/01/03 03:45:11;;;;;;;;;;;;;;;19.67;47.69;100858.75;7282997;19;155104;-50
2022/01/03 03:47:37;;;;;;;;;;;;;;;19.64;47.58;100842.56;7278787;19;152361;-51
2022/01/03 03:50:05;;;;;;;;;;;;;;;19.64;48.02;100836.97;7279562;19;154522;-50
2022/01/03 03:52:32;;;;;;;;;;;;;;;19.64;47.72;100847.31;7286953;19;153851;-50
2022/01/03 03:54:58;;;;;;;;;;;;;;;19.62;48.18;100841.22;7278840;19;152747;-50
2022/01/03 03:57:25;;;;;;;;;;;;;;;19.61;48.18;100834.78;7280928;19;152294;-50
2022/01/03 03:59:52;;;;;;;;;;;;;;;19.60;48.23;100838.69;7282518;19;151837;-50
2022/01/03 04:02:19;;;;;;;;;;;;;;;19.57;48.24;100835.69;7281813;19;153242;-50
2022/01/03 04:04:46;;;;;;;;;;;;;;;19.58;48.26;100834.56;7279923;19;154130;-50
2022/01/03 04:07:12;;;;;;;;;;;;;;;19.61;48.68;100845.16;7279851;19;152320;-50
2022/01/03 04:09:39;;;;;;;;;;;;;;;19.58;48.50;100835.34;7280784;19;152075;-50
2022/01/03 04:12:06;;;;;;;;;;;;;;;19.56;48.52;100828.41;7280101;19;153985;-51
2022/01/03 04:14:33;;;;;;;;;;;;;;;19.59;48.63;100851.03;7289848;19;151726;-50
2022/01/03 04:17:00;;;;;;;;;;;;;;;19.55;48.74;100827.56;7280188;19;152520;-50
2022/01/03 04:19:27;;;;;;;;;;;;;;;19.55;48.84;100833.19;7283043;19;152543;-50
2022/01/03 04:21:54;;;;;;;;;;;;;;;19.55;48.59;100833.19;7281284;19;153221;-50
2022/01/03 04:24:21;;;;;;;;;;;;;;;19.52;48.75;100842.19;7279973;19;153648;-50
2022/01/03 04:26:49;;;;;;;;;;;;;;;19.53;48.76;100832.66;7279926;19;152268;-51
2022/01/03 04:29:16;;;;;;;;;;;;;;;19.54;48.91;100829.53;7281268;19;153449;-50
2022/01/03 04:31:43;;;;;;;;;;;;;;;19.51;48.92;100818.94;7278337;19;153433;-50
2022/01/03 04:34:10;;;;;;;;;;;;;;;19.49;49.06;100814.78;7286338;19;152394;-50
2022/01/03 04:36:37;;;;;;;;;;;;;;;19.53;48.99;100815.84;7280541;19;153684;-50
2022/01/03 04:39:04;;;;;;;;;;;;;;;19.51;49.13;100812.50;7282666;19;152750;-49
2022/01/03 04:41:31;;;;;;;;;;;;;;;19.51;49.21;100815.31;7279390;19;153471;-51
2022/01/03 04:44:00;;;;;;;;;;;;;;;19.49;49.34;100818.41;7279928;19;153937;-50
2022/01/03 04:46:27;;;;;;;;;;;;;;;19.49;48.80;100798.78;7280455;19;152456;-50
2022/01/03 04:48:54;;;;;;;;;;;;;;;19.51;49.23;100801.31;7278467;19;153376;-50
2022/01/03 04:51:21;;;;;;;;;;;;;;;19.49;49.08;100810.00;7278956;19;152193;-50
2022/01/03 04:53:48;;;;;;;;;;;;;;;19.51;49.41;100815.31;7280787;19;152358;-50
2022/01/03 04:56:15;;;;;;;;;;;;;;;19.49;49.49;100817.56;7285271;19;152956;-50
2022/01/03 04:58:42;;;;;;;;;;;;;;;19.49;49.42;100815.59;7278373;19;152710;-50
2022/01/03 05:01:09;;;;;;;;;;;;;;;19.50;49.02;100814.47;7281603;19;152626;-50
2022/01/03 05:03:36;;;;;;;;;;;;;;;19.48;49.25;100813.13;7286172;19;154320;-50
2022/01/03 05:06:03;;;;;;;;;;;;;;;19.50;48.95;100813.63;7283466;19;152856;-50
2022/01/03 05:08:31;;;;;;;;;;;;;;;19.46;48.96;100809.78;7285010;19;152762;-50
2022/01/03 05:13:30;;;;;;;;;;;;;;;19.44;49.00;100818.50;7286558;19;151725;-49
2022/01/03 05:15:57;;;;;;;;;;;;;;;19.45;49.42;100819.31;7287174;19;152560;-50
2022/01/03 05:18:24;;;;;;;;;;;;;;;19.44;49.47;100812.88;7289615;19;154360;-50
2022/01/03 05:20:51;;;;;;;;;;;;;;;19.44;49.61;100809.28;7286410;19;152604;-50
2022/01/03 05:23:18;;;;;;;;;;;;;;;19.44;49.50;100804.47;7285621;19;153450;-50
2022/01/03 05:25:45;;;;;;;;;;;;;;;19.44;49.55;100807.28;7284424;19;151830;-49
2022/01/03 05:28:12;;;;;;;;;;;;;;;19.43;49.55;100807.56;7283032;19;153154;-50
2022/01/03 05:30:39;;;;;;;;;;;;;;;19.44;49.83;100793.28;7284701;19;153366;-50
2022/01/03 05:33:06;;;;;;;;;;;;;;;19.43;49.85;100813.19;7287945;19;152344;-50
2022/01/03 05:35:33;;;;;;;;;;;;;;;19.43;49.47;100807.56;7282539;19;151970;-50
2022/01/03 05:38:00;;;;;;;;;;;;;;;19.42;49.84;100808.69;7283148;19;153245;-50
2022/01/03 05:40:27;;;;;;;;;;;;;;;19.43;49.53;100787.97;7292092;19;151858;-50
2022/01/03 05:42:54;;;;;;;;;;;;;;;19.41;49.49;100779.84;7284459;19;154474;-50
2022/01/03 05:45:24;;;;;;;;;;;;;;;19.41;49.49;100781.81;7286223;19;152179;-50
2022/01/03 05:47:52;;;;;;;;;;;;;;;19.41;49.79;100779.84;7284834;19;153722;-50
2022/01/03 05:50:18;;;;;;;;;;;;;;;19.41;49.66;100784.63;7282494;19;152212;-50
2022/01/03 05:52:46;;;;;;;;;;;;;;;19.43;50.29;100774.81;7287205;19;152450;-50
2022/01/03 05:55:13;;;;;;;;;;;;;;;19.49;50.37;100775.53;7288902;19;152719;-50
2022/01/03 05:57:40;;;;;;;;;;;;;;;19.51;50.34;100776.91;7287242;19;154213;-50
2022/01/03 06:00:08;;;;;;;;;;;;;;;19.56;50.43;100761.16;7285342;19;152369;-50
2022/01/03 06:02:39;;;;;;;;;;;;;;;19.57;50.70;100769.25;7290130;19;152702;-50
2022/01/03 06:05:07;;;;;;;;;;;;;;;19.63;50.75;100767.19;7285386;19;152026;-49
2022/01/03 06:07:34;;;;;;;;;;;;;;;19.67;51.15;100755.03;7283581;19;151900;-50
2022/01/03 06:10:03;;;;;;;;;;;;;;;19.73;50.81;100759.44;7284446;19;153321;-50
2022/01/03 06:12:30;;;;;;;;;;;;;;;19.79;50.94;100763.81;7282752;19;152122;-50
2022/01/03 06:14:57;;;;;;;;;;;;;;;19.87;51.97;100760.31;7285188;19;152591;-50
2022/01/03 06:17:24;;;;;;;;;;;;;;;19.94;52.32;100766.31;7284915;19;153376;-50
2022/01/03 06:19:51;;;;;;;;;;;;;;;20.02;52.51;100764.81;7286578;19;151921;-50
2022/01/03 06:22:19;;;;;;;;;;;;;;;20.10;52.20;100764.06;7288279;19;153023;-49
2022/01/03 06:24:47;;;;;;;;;;;;;;;20.18;52.05;100770.94;7291542;19;152407;-50
2022/01/03 06:27:16;;;;;;;;;;;;;;;20.25;51.83;100757.34;7282680;19;153428;-50
2022/01/03 06:29:43;;;;;;;;;;;;;;;20.33;51.88;100756.63;7281716;19;154093;-49
2022/01/03 06:32:10;;;;;;;;;;;;;;;20.40;51.17;100755.06;7283118;19;152233;-49
2022/01/03 06:34:36;;;;;;;;;;;;;;;20.47;51.44;100757.47;7284636;19;153127;-50
2022/01/03 06:37:03;;;;;;;;;;;;;;;20.53;51.04;100756.22;7284030;19;153216;-50
2022/01/03 06:39:30;;;;;;;;;;;;;;;20.61;50.73;100749.88;7284965;19;152731;-51
2022/01/03 06:41:57;;;;;;;;;;;;;;;20.69;50.99;100742.69;7285344;19;152755;-50
2022/01/03 06:44:24;;;;;;;;;;;;;;;20.74;50.55;100740.59;7290714;19;154255;-49
2022/01/03 06:46:51;;;;;;;;;;;;;;;20.81;50.52;100738.16;7282631;19;152614;-49
2022/01/03 06:49:18;;;;;;;;;;;;;;;20.87;50.15;100747.31;7282919;19;153377;-49
2022/01/03 06:51:45;;;;;;;;;;;;;;;20.94;50.08;100744.09;7283968;19;152007;-50
2022/01/03 06:54:12;;;;;;;;;;;;;;;21.00;49.95;100734.38;7284489;19;153215;-50
2022/01/03 06:56:41;;;;;;;;;;;;;;;21.06;49.77;100728.34;7283412;19;152171;-50
2022/01/03 06:59:09;;;;;;;;;;;;;;;21.12;49.49;100729.84;7286940;19;151952;-49
2022/01/03 07:01:37;;;;;;;;;;;;;;;21.18;49.47;100744.66;7282533;19;152093;-49
2022/01/03 07:04:04;;;;;;;;;;;;;;;21.23;49.36;100745.38;7279760;19;154069;-50
2022/01/03 07:06:32;;;;;;;;;;;;;;;21.30;49.09;100737.31;7288813;19;151913;-50
2022/01/03 07:08:59;;;;;;;;;;;;;;;21.36;49.02;100735.22;7279884;19;154299;-50
2022/01/03 07:11:26;;;;;;;;;;;;;;;21.41;48.62;100735.09;7281937;19;152542;-49
2022/01/03 07:14:04;;;;;;;;;;;;;;;21.46;48.85;100745.38;7284145;19;152795;-50
2022/01/03 07:19:05;;;;;;;;;;;;;;;21.57;48.24;100729.91;7281476;19;152388;-50
2022/01/03 07:21:33;;;;;;;;;;;;;;;21.64;48.31;100735.91;7281209;19;152723;-50
2022/01/03 07:24:00;;;;;;;;;;;;;;;21.70;48.38;100734.63;7279139;19;154182;-50
2022/01/03 07:26:28;;;;;;;;;;;;;;;21.73;48.20;100734.81;7281244;19;151920;-50
2022/01/03 07:28:55;;;;;;;;;;;;;;;21.78;47.98;100735.81;7287584;19;152923;-50
2022/01/03 07:31:22;;;;;;;;;;;;;;;21.81;47.99;100723.91;7282594;19;152112;-50
2022/01/03 07:33:49;;;;;;;;;;;;;;;21.84;47.98;100729.75;7282945;19;152875;-50
2022/01/03 07:36:16;;;;;;;;;;;;;;;21.87;48.21;100737.53;7283004;19;153277;-50
2022/01/03 07:38:46;;;;;;;;;;;;;;;21.90;47.93;100727.59;7279873;19;152062;-50
2022/01/03 07:41:15;;;;;;;;;;;;;;;21.93;47.80;100733.47;7280169;19;152781;-50
2022/01/03 07:43:43;;;;;;;;;;;;;;;21.95;47.67;100728.34;7281753;19;154354;-50
2022/01/03 07:46:10;;;;;;;;;;;;;;;21.97;47.72;100725.22;7281130;19;151931;-50
2022/01/03 07:48:41;;;;;;;;;;;;;;;21.99;47.53;100725.69;7280513;19;153303;-50
2022/01/03 07:51:08;;;;;;;;;;;;;;;22.00;47.43;100727.38;7287370;19;153256;-49
2022/01/03 07:53:35;;;;;;;;;;;;;;;22.01;47.55;100720.59;7282627;19;152023;-50
2022/01/03 07:56:04;;;;;;;;;;;;;;;22.02;47.45;100727.88;7278915;19;153972;-49
2022/01/03 07:58:32;;;;;;;;;;;;;;;22.02;47.03;100725.06;7280385;19;151910;-50
2022/01/03 08:00:59;;;;;;;;;;;;;;;22.02;47.42;100725.06;7280867;19;153416;-50
2022/01/03 08:03:26;;;;;;;;;;;;;;;22.01;46.94;100727.03;7280985;19;153740;-49
2022/01/03 08:06:05;;;;;;;;;;;;;;;22.02;47.32;100728.72;7280855;19;152011;-49
2022/01/03 08:08:32;;;;;;;;;;;;;;;22.02;47.35;100736.31;7277518;19;152754;-50
2022/01/03 08:10:59;;;;;;;;;;;;;;;22.01;47.46;100734.66;7281172;19;154357;-50
2022/01/03 08:13:26;;;;;;;;;;;;;;;21.98;47.39;100727.72;7289748;19;152076;-50
2022/01/03 08:15:53;;;;;;;;;;;;;;;21.98;47.27;100733.34;7281774;19;154599;-49
2022/01/03 08:18:21;;;;;;;;;;;;;;;21.98;47.06;100729.69;7280634;19;152134;-50
2022/01/03 08:20:49;;;;;;;;;;;;;;;21.94;46.86;100728.69;7280557;19;153342;-50
2022/01/03 08:23:16;;;;;;;;;;;;;;;21.92;47.26;100723.34;7278961;19;153360;-50
2022/01/03 08:25:43;;;;;;;;;;;;;;;21.91;46.79;100729.28;7279296;19;151895;-49
2022/01/03 08:28:10;;;;;;;;;;;;;;;21.90;47.00;100727.59;7280318;19;153365;-50
2022/01/03 08:30:37;;;;;;;;;;;;;;;21.89;46.72;100723.16;7278181;19;154184;-50
2022/01/03 08:33:04;;;;;;;;;;;;;;;21.87;47.07;100719.81;7289664;19;151913;-50
2022/01/03 08:35:31;;;;;;;;;;;;;;;21.83;47.44;100716.84;7277604;19;153329;-50
2022/01/03 08:37:58;;;;;;;;;;;;;;;21.83;47.54;100716.00;7280377;19;152103;-50
2022/01/03 08:40:25;;;;;;;;;;;;;;;21.83;47.23;100721.63;7281155;19;153653;-50
2022/01/03 08:42:53;;;;;;;;;;;;;;;21.81;47.37;100716.31;7276941;19;154048;-49
2022/01/03 08:45:20;;;;;;;;;;;;;;;21.80;47.68;100717.50;7279275;19;152153;-50
2022/01/03 08:47:47;;;;;;;;;;;;;;;21.79;47.29;100727.06;7279841;19;152995;-50
2022/01/03 08:50:17;;;;;;;;;;;;;;;21.77;48.04;100714.47;7277158;19;152750;-49
2022/01/03 08:52:45;;;;;;;;;;;;;;;21.76;47.96;100716.44;7280515;19;151967;-49
2022/01/03 08:55:12;;;;;;;;;;;;;;;21.73;47.46;100706.69;7285826;19;153158;-50
2022/01/03 08:57:40;;;;;;;;;;;;;;;21.72;47.76;100709.81;7278975;19;152378;-49
2022/01/03 09:00:10;;;;;;;;;;;;;;;21.73;47.36;100698.25;7279754;19;152673;-49
2022/01/03 09:02:37;;;;;;;;;;;;;;;21.74;47.79;100711.16;7279630;19;153718;-49
2022/01/03 09:05:04;;;;;;;;;;;;;;;21.76;48.18;100708.00;7278728;19;152028;-49
2022/01/03 09:07:31;;;;;;;;;;;;;;;21.80;48.15;100699.78;7277093;19;152672;-49
2022/01/03 09:09:58;;;;;;;;;;;;;;;21.83;48.20;100713.19;7275406;19;152171;-49
2022/01/03 09:12:25;;;;;;;;;;;;;;;21.85;48.35;100706.06;7280123;19;152553;-49
2022/01/03 09:14:52;;;;;;;;;;;;;;;21.88;48.37;100708.25;7276638;19;153596;-49
2022/01/03 09:17:18;;;;;;;;;;;;;;;21.92;47.92;100711.25;7286693;19;152659;-50
2022/01/03 09:19:45;;;;;;;;;;;;;;;21.94;48.26;100706.16;7279903;19;153529;-50
2022/01/03 09:22:21;;;;;;;;;;;;;;;21.96;48.16;100701.88;7276552;19;153378;-50
2022/01/03 09:29:49;;;;;;;;;;;;;;;22.01;47.97;100706.53;7273190;19;153417;-50
2022/01/03 09:32:16;;;;;;;;;;;;;;;22.02;47.88;100706.22;7279224;19;152186;-50
2022/01/03 09:34:42;;;;;;;;;;;;;;;22.02;47.77;100706.22;7278910;19;152680;-50
2022/01/03 09:37:09;;;;;;;;;;;;;;;22.03;47.37;100695.78;7277872;19;153455;-50
2022/01/03 09:39:36;;;;;;;;;;;;;;;22.02;47.68;100703.41;7289614;19;152417;-50
2022/01/03 09:42:11;;;;;;;;;;;;;;;22.00;47.53;100700.06;7277515;19;152800;-50
2022/01/03 09:44:38;;;;;;;;;;;;;;;22.00;47.16;100699.22;7276025;19;152087;-50
2022/01/03 09:47:05;;;;;;;;;;;;;;;22.00;46.95;100702.03;7281537;19;153027;-50
2022/01/03 09:49:34;;;;;;;;;;;;;;;21.99;47.25;100700.38;7279667;19;153290;-50
2022/01/03 09:52:03;;;;;;;;;;;;;;;21.98;47.22;100702.38;7285244;19;151764;-49
2022/01/03 09:54:31;;;;;;;;;;;;;;;21.98;47.14;100696.75;7285154;19;152268;-50
2022/01/03 09:56:59;;;;;;;;;;;;;;;21.98;46.99;100710.00;7285271;19;153436;-50
2022/01/03 09:59:27;;;;;;;;;;;;;;;21.97;47.38;100709.16;7285929;19;151921;-50
2022/01/03 10:01:56;;;;;;;;;;;;;;;21.89;46.23;100703.47;7289669;19;152516;-50
2022/01/03 10:04:23;;;;;;;;;;;;;;;21.82;45.76;100703.91;7285516;19;152445;-50
2022/01/03 10:06:50;;;;;;;;;;;;;;;21.80;45.42;100708.22;7287048;19;152993;-50
2022/01/03 10:09:18;;;;;;;;;;;;;;;21.76;45.32;100710.03;7278237;19;153870;-49
2022/01/03 10:11:46;;;;;;;;;;;;;;;21.73;45.42;100714.28;7283079;19;151902;-50
2022/01/03 10:14:13;;;;;;;;;;;;;;;21.67;45.22;100710.78;7282360;19;152612;-50
2022/01/03 10:16:40;;;;;;;;;;;;;;;21.62;44.94;100705.28;7282418;19;153891;-50
2022/01/03 10:19:14;;;;;;;;;;;;;;;21.59;45.37;100711.56;7284635;19;151894;-50
2022/01/03 10:21:44;;;;;;;;;;;;;;;21.59;44.94;100711.56;7285526;19;153077;-50
2022/01/03 10:24:12;;;;;;;;;;;;;;;21.54;44.72;100702.41;7286413;19;154202;-50
2022/01/03 10:26:42;;;;;;;;;;;;;;;21.52;44.97;100704.75;7279253;19;153081;-50
2022/01/03 10:29:10;;;;;;;;;;;;;;;21.48;44.85;100701.75;7280327;19;153140;-50
2022/01/03 10:31:39;;;;;;;;;;;;;;;21.47;44.81;100700.09;7282000;19;152137;-49
2022/01/03 10:34:07;;;;;;;;;;;;;;;21.49;44.65;100706.19;7288427;19;152819;-50
2022/01/03 10:36:36;;;;;;;;;;;;;;;21.50;45.21;100702.25;7284839;19;153558;-49
2022/01/03 10:39:07;;;;;;;;;;;;;;;21.51;45.70;100703.91;7287168;19;152237;-49
2022/01/03 10:41:34;;;;;;;;;;;;;;;21.55;45.72;100706.91;7279486;19;152208;-50
2022/01/03 10:44:01;;;;;;;;;;;;;;;21.56;45.52;100705.75;7287053;19;153826;-50
2022/01/03 10:46:29;;;;;;;;;;;;;;;21.58;45.47;100715.50;7283738;19;153447;-50
2022/01/03 10:48:59;;;;;;;;;;;;;;;21.57;45.02;100708.25;7280954;19;153879;-49
2022/01/03 10:51:28;;;;;;;;;;;;;;;21.59;45.01;100705.09;7284502;19;151969;-50
2022/01/03 10:53:55;;;;;;;;;;;;;;;21.58;44.93;100712.69;7285093;19;153198;-49
2022/01/03 10:56:27;;;;;;;;;;;;;;;21.60;44.77;100698.34;7282451;19;153371;-50
2022/01/03 10:59:03;;;;;;;;;;;;;;;21.57;44.58;100697.00;7282146;19;151894;-49
2022/01/03 11:01:32;;;;;;;;;;;;;;;21.59;44.72;100683.44;7283137;19;153156;-49
2022/01/03 11:04:01;;;;;;;;;;;;;;;21.63;44.14;100692.06;7280479;19;153327;-50
2022/01/03 11:11:42;;;;;;;;;;;;;;;21.67;44.34;100679.84;7284464;19;152129;-50
2022/01/03 11:14:22;;;;;;;;;;;;;;;21.69;44.07;100691.63;7283494;19;152288;-50
2022/01/03 11:16:49;;;;;;;;;;;;;;;21.72;43.98;100674.09;7284339;19;152589;-50
2022/01/03 11:19:16;;;;;;;;;;;;;;;21.71;44.11;100675.22;7284478;19;152020;-51
2022/01/03 11:21:44;;;;;;;;;;;;;;;21.75;43.53;100667.00;7283212;19;152398;-50
2022/01/03 11:24:13;;;;;;;;;;;;;;;21.74;43.22;100654.91;7283545;19;153259;-51
2022/01/03 11:26:46;;;;;;;;;;;;;;;21.80;43.24;100650.00;7282678;19;151835;-50
2022/01/03 11:29:15;;;;;;;;;;;;;;;21.83;42.99;100646.53;7287781;19;153258;-50
2022/01/03 11:31:42;;;;;;;;;;;;;;;21.85;42.95;100638.56;7281070;19;152746;-49
2022/01/03 11:34:10;;;;;;;;;;;;;;;21.87;43.01;100647.53;7281389;19;152815;-50
2022/01/03 11:36:57;;;;;;;;;;;;;;;21.92;43.25;100643.72;7280653;19;152266;-51
2022/01/03 11:39:25;;;;;;;;;;;;;;;21.39;39.68;100641.00;7283622;19;151996;-49
2022/01/03 11:41:53;;;;;;;;;;;;;;;21.01;40.43;100646.16;7283158;19;153001;-49
2022/01/03 11:44:20;;;;;;;;;;;;;;;21.07;39.89;100640.13;7282013;19;153324;-50
2022/01/03 11:46:47;;;;;;;;;;;;;;;21.37;40.28;100620.81;7282903;19;151624;-51
2022/01/03 11:49:16;;;;;;;;;;;;;;;21.56;40.32;100629.84;7282105;19;153243;-52
2022/01/03 11:51:43;;;;;;;;;;;;;;;21.68;40.92;100619.66;7289376;19;154114;-50
2022/01/03 11:54:13;;;;;;;;;;;;;;;21.71;41.17;100621.81;7278560;19;152667;-50
2022/01/03 11:56:45;;;;;;;;;;;;;;;21.75;41.38;100602.31;7279096;19;153233;-50
2022/01/03 12:04:14;;;;;;;;;;;;;;;21.77;42.07;100601.97;7276908;19;153429;-50
2022/01/03 12:06:42;;;;;;;;;;;;;;;21.78;41.83;100610.09;7271623;19;152102;-51
2022/01/03 12:09:11;;;;;;;;;;;;;;;21.77;42.13;100600.00;7254454;19;153496;-49
2022/01/03 12:11:41;;;;;;;;;;;;;;;21.79;41.87;100599.69;7257621;19;153339;-51
2022/01/03 12:14:10;;;;;;;;;;;;;;;21.78;42.09;100593.22;7279458;19;152260;-50
2022/01/03 12:16:39;;;;;;;;;;;;;;;21.78;42.18;100590.41;7272069;19;152373;-51
2022/01/03 12:19:08;;;;;;;;;;;;;;;21.79;42.13;100592.06;7267042;19;152200;-50
2022/01/03 12:21:44;;;;;;;;;;;;;;;21.78;42.36;100589.56;7280159;19;154406;-50
2022/01/03 12:24:14;;;;;;;;;;;;;;;21.77;42.51;100590.72;7281352;19;153299;-49
2022/01/03 12:26:41;;;;;;;;;;;;;;;21.74;42.38;100593.06;7282161;19;152086;-50
2022/01/03 12:29:09;;;;;;;;;;;;;;;21.77;42.55;100590.72;7280012;19;152652;-51
2022/01/03 12:31:39;;;;;;;;;;;;;;;21.78;42.80;100596.03;7276989;19;153797;-50
2022/01/03 12:34:09;;;;;;;;;;;;;;;21.76;42.69;100587.09;7282774;19;151671;-49
2022/01/03 12:36:36;;;;;;;;;;;;;;;21.77;42.43;100580.31;7289572;19;153019;-50
2022/01/03 12:39:04;;;;;;;;;;;;;;;21.75;42.41;100577.00;7281043;19;151730;-50
2022/01/03 12:41:34;;;;;;;;;;;;;;;21.70;42.62;100575.19;7277099;19;152766;-51
2022/01/03 12:44:02;;;;;;;;;;;;;;;21.73;42.67;100571.69;7276562;19;153649;-50
2022/01/03 12:46:29;;;;;;;;;;;;;;;21.74;42.48;100567.75;7282909;19;151738;-50
2022/01/03 12:49:15;;;;;;;;;;;;;;;21.74;42.80;100572.53;7279750;19;153548;-51
2022/01/03 12:51:42;;;;;;;;;;;;;;;21.67;42.63;100564.56;7277325;19;154061;-51
2022/01/03 12:54:10;;;;;;;;;;;;;;;21.68;42.93;100556.97;7281034;19;152125;-51
2022/01/03 12:56:37;;;;;;;;;;;;;;;21.67;42.66;100566.53;7283998;19;153106;-51